sensor_id;sensor_type;location;lat;lon;timestamp;pressure;altitude;pressure_sealevel;temperature;humidity
41531;BME280;58990;46.284;13.126;2022-07-29T00:01:00;99214.97;;;24.63;51.99
41531;BME280;58990;46.284;13.126;2022-07-29T00:03:26;99205.31;;;24.57;51.86
41531;BME280;58990;46.284;13.126;2022-07-29T00:05:51;99207.47;;;24.65;51.55
41531;BME280;58990;46.284;13.126;2022-07-29T00:08:18;99198.31;;;24.71;51.24
41531;BME280;58990;46.284;13.126;2022-07-29T00:10:44;99203.66;;;24.76;50.73
41531;BME280;58990;46.284;13.126;2022-07-29T00:13:09;99200.44;;;24.79;50.99
41531;BME280;58990;46.284;13.126;2022-07-29T00:15:35;99195.09;;;24.74;51.11
41531;BME280;58990;46.284;13.126;2022-07-29T00:18:00;99195.13;;;24.64;51.53
41531;BME280;58990;46.284;13.126;2022-07-29T00:20:26;99199.13;;;24.66;51.58
41531;BME280;58990;46.284;13.126;2022-07-29T00:22:52;99205.06;;;24.63;51.78
41531;BME280;58990;46.284;13.126;2022-07-29T00:25:18;99191.38;;;24.55;52.12
41531;BME280;58990;46.284;13.126;2022-07-29T00:27:44;99192.50;;;24.43;52.71
41531;BME280;58990;46.284;13.126;2022-07-29T00:30:11;99196.81;;;24.34;52.79
41531;BME280;58990;46.284;13.126;2022-07-29T00:32:37;99198.47;;;24.25;53.24
41531;BME280;58990;46.284;13.126;2022-07-29T00:35:03;99184.00;;;24.15;53.90
41531;BME280;58990;46.284;13.126;2022-07-29T00:37:49;99186.97;;;24.04;54.26
41531;BME280;58990;46.284;13.126;2022-07-29T00:40:14;99183.50;;;23.98;54.04
41531;BME280;58990;46.284;13.126;2022-07-29T00:45:21;99176.81;;;23.90;54.44
41531;BME280;58990;46.284;13.126;2022-07-29T00:47:47;99170.66;;;23.90;54.39
41531;BME280;58990;46.284;13.126;2022-07-29T00:50:14;99168.50;;;23.87;54.26
41531;BME280;58990;46.284;13.126;2022-07-29T00:52:41;99165.56;;;23.93;54.28
41531;BME280;58990;46.284;13.126;2022-07-29T00:55:09;99162.59;;;23.95;54.07
41531;BME280;58990;46.284;13.126;2022-07-29T00:57:36;99159.13;;;23.79;54.57
41531;BME280;58990;46.284;13.126;2022-07-29T01:00:06;99153.22;;;23.82;54.33
41531;BME280;58990;46.284;13.126;2022-07-29T01:02:33;99155.09;;;23.87;54.03
41531;BME280;58990;46.284;13.126;2022-07-29T01:04:59;99143.84;;;23.84;54.35
41531;BME280;58990;46.284;13.126;2022-07-29T01:07:25;99143.88;;;23.74;54.19
41531;BME280;58990;46.284;13.126;2022-07-29T01:09:53;99143.31;;;23.72;54.25
41531;BME280;58990;46.284;13.126;2022-07-29T01:12:27;99135.84;;;23.64;54.80
41531;BME280;58990;46.284;13.126;2022-07-29T01:14:55;99140.13;;;23.65;55.42
41531;BME280;58990;46.284;13.126;2022-07-29T01:17:26;99141.19;;;23.54;55.29
41531;BME280;58990;46.284;13.126;2022-07-29T01:29:28;99150.31;;;23.42;55.57
41531;BME280;58990;46.284;13.126;2022-07-29T01:32:02;99150.31;;;23.37;55.34
41531;BME280;58990;46.284;13.126;2022-07-29T01:39:54;99149.22;;;23.54;53.87
41531;BME280;58990;46.284;13.126;2022-07-29T01:45:08;99147.63;;;23.63;53.23
41531;BME280;58990;46.284;13.126;2022-07-29T01:47:43;99148.13;;;23.75;52.68
41531;BME280;58990;46.284;13.126;2022-07-29T01:50:12;99142.25;;;23.78;52.15
41531;BME280;58990;46.284;13.126;2022-07-29T01:52:45;99142.50;;;23.87;51.97
41531;BME280;58990;46.284;13.126;2022-07-29T01:55:14;99137.44;;;23.91;51.44
41531;BME280;58990;46.284;13.126;2022-07-29T01:57:42;99141.16;;;23.95;51.22
41531;BME280;58990;46.284;13.126;2022-07-29T02:00:08;99135.25;;;23.98;51.17
41531;BME280;58990;46.284;13.126;2022-07-29T02:02:35;99129.91;;;23.98;51.25
41531;BME280;58990;46.284;13.126;2022-07-29T02:05:04;99135.81;;;23.95;51.71
41531;BME280;58990;46.284;13.126;2022-07-29T02:07:32;99125.91;;;23.80;52.19
41531;BME280;58990;46.284;13.126;2022-07-29T02:09:58;99127.53;;;23.76;53.00
41531;BME280;58990;46.284;13.126;2022-07-29T02:12:25;99120.81;;;23.63;53.25
41531;BME280;58990;46.284;13.126;2022-07-29T02:14:53;99133.69;;;23.56;53.76
41531;BME280;58990;46.284;13.126;2022-07-29T02:17:31;99137.47;;;23.39;54.93
41531;BME280;58990;46.284;13.126;2022-07-29T02:20:00;99128.38;;;23.30;54.83
41531;BME280;58990;46.284;13.126;2022-07-29T02:22:29;99135.31;;;23.15;55.39
41531;BME280;58990;46.284;13.126;2022-07-29T02:24:57;99132.31;;;23.12;55.28
41531;BME280;58990;46.284;13.126;2022-07-29T02:27:24;99141.22;;;23.17;55.34
41531;BME280;58990;46.284;13.126;2022-07-29T02:29:51;99138.00;;;23.26;54.58
41531;BME280;58990;46.284;13.126;2022-07-29T02:32:18;99154.56;;;23.23;54.00
41531;BME280;58990;46.284;13.126;2022-07-29T02:34:46;99162.63;;;23.28;53.87
41531;BME280;58990;46.284;13.126;2022-07-29T02:37:12;99179.75;;;23.27;54.58
41531;BME280;58990;46.284;13.126;2022-07-29T02:39:40;99182.16;;;23.13;56.16
41531;BME280;58990;46.284;13.126;2022-07-29T02:42:11;99188.78;;;23.05;57.89
41531;BME280;58990;46.284;13.126;2022-07-29T02:44:38;99182.28;;;22.75;59.75
41531;BME280;58990;46.284;13.126;2022-07-29T02:50:02;99193.00;;;22.75;59.40
41531;BME280;58990;46.284;13.126;2022-07-29T02:52:41;99203.41;;;22.66;59.17
41531;BME280;58990;46.284;13.126;2022-07-29T03:00:37;99191.28;;;22.48;61.04
41531;BME280;58990;46.284;13.126;2022-07-29T03:03:09;99178.34;;;22.30;62.40
41531;BME280;58990;46.284;13.126;2022-07-29T03:05:36;99181.00;;;22.25;62.79
41531;BME280;58990;46.284;13.126;2022-07-29T03:08:04;99176.63;;;22.08;62.76
41531;BME280;58990;46.284;13.126;2022-07-29T03:10:31;99171.22;;;21.98;63.29
41531;BME280;58990;46.284;13.126;2022-07-29T03:12:57;99169.13;;;22.00;62.92
41531;BME280;58990;46.284;13.126;2022-07-29T03:15:23;99167.47;;;21.94;65.06
41531;BME280;58990;46.284;13.126;2022-07-29T03:17:50;99165.69;;;21.67;65.18
41531;BME280;58990;46.284;13.126;2022-07-29T03:20:16;99155.50;;;21.64;65.31
41531;BME280;58990;46.284;13.126;2022-07-29T03:22:43;99157.13;;;21.65;65.10
41531;BME280;58990;46.284;13.126;2022-07-29T03:25:13;99150.91;;;21.54;66.76
41531;BME280;58990;46.284;13.126;2022-07-29T03:27:39;99146.72;;;21.36;68.06
41531;BME280;58990;46.284;13.126;2022-07-29T03:30:06;99149.91;;;21.33;68.08
41531;BME280;58990;46.284;13.126;2022-07-29T03:32:32;99144.88;;;21.37;67.71
41531;BME280;58990;46.284;13.126;2022-07-29T03:34:57;99145.44;;;21.44;66.62
41531;BME280;58990;46.284;13.126;2022-07-29T03:37:23;99140.22;;;21.54;66.21
41531;BME280;58990;46.284;13.126;2022-07-29T03:39:49;99125.53;;;21.57;65.48
41531;BME280;58990;46.284;13.126;2022-07-29T03:42:18;99125.56;;;21.62;65.04
41531;BME280;58990;46.284;13.126;2022-07-29T03:44:47;99123.81;;;21.78;64.17
41531;BME280;58990;46.284;13.126;2022-07-29T03:47:15;99127.31;;;21.78;64.40
41531;BME280;58990;46.284;13.126;2022-07-29T03:49:44;99133.75;;;21.88;64.08
41531;BME280;58990;46.284;13.126;2022-07-29T03:52:12;99138.59;;;21.91;64.01
41531;BME280;58990;46.284;13.126;2022-07-29T03:54:37;99146.28;;;21.82;64.78
41531;BME280;58990;46.284;13.126;2022-07-29T03:57:05;99147.53;;;21.69;66.46
41531;BME280;58990;46.284;13.126;2022-07-29T03:59:32;99148.84;;;21.66;66.96
41531;BME280;58990;46.284;13.126;2022-07-29T04:02:01;99151.72;;;21.55;67.28
41531;BME280;58990;46.284;13.126;2022-07-29T04:04:27;99162.56;;;21.48;67.52
41531;BME280;58990;46.284;13.126;2022-07-29T04:06:53;99166.59;;;21.50;66.57
41531;BME280;58990;46.284;13.126;2022-07-29T04:09:18;99168.81;;;21.59;66.74
41531;BME280;58990;46.284;13.126;2022-07-29T04:11:45;99169.38;;;21.61;65.99
41531;BME280;58990;46.284;13.126;2022-07-29T04:14:11;99171.00;;;21.67;65.97
41531;BME280;58990;46.284;13.126;2022-07-29T04:16:36;99164.16;;;21.76;65.41
41531;BME280;58990;46.284;13.126;2022-07-29T04:19:02;99171.69;;;21.84;64.54
41531;BME280;58990;46.284;13.126;2022-07-29T04:21:27;99163.19;;;21.93;64.12
41531;BME280;58990;46.284;13.126;2022-07-29T04:23:53;99162.16;;;21.99;63.53
41531;BME280;58990;46.284;13.126;2022-07-29T04:26:20;99155.25;;;22.08;63.06
41531;BME280;58990;46.284;13.126;2022-07-29T04:28:45;99170.00;;;22.21;62.60
41531;BME280;58990;46.284;13.126;2022-07-29T04:31:12;99163.13;;;22.30;62.00
41531;BME280;58990;46.284;13.126;2022-07-29T04:33:38;99161.78;;;22.33;61.94
41531;BME280;58990;46.284;13.126;2022-07-29T04:36:04;99159.72;;;22.35;61.34
41531;BME280;58990;46.284;13.126;2022-07-29T04:38:29;99158.66;;;22.46;60.99
41531;BME280;58990;46.284;13.126;2022-07-29T04:40:55;99166.16;;;22.49;61.75
41531;BME280;58990;46.284;13.126;2022-07-29T04:43:20;99170.06;;;22.31;62.30
41531;BME280;58990;46.284;13.126;2022-07-29T04:45:46;99167.38;;;22.26;62.96
41531;BME280;58990;46.284;13.126;2022-07-29T04:48:11;99159.06;;;22.17;63.68
41531;BME280;58990;46.284;13.126;2022-07-29T04:50:40;99165.44;;;22.11;64.07
41531;BME280;58990;46.284;13.126;2022-07-29T04:53:06;99170.22;;;22.04;64.36
41531;BME280;58990;46.284;13.126;2022-07-29T04:55:32;99167.75;;;21.97;64.84
41531;BME280;58990;46.284;13.126;2022-07-29T04:57:58;99169.03;;;21.90;65.04
41531;BME280;58990;46.284;13.126;2022-07-29T05:00:23;99166.34;;;21.84;65.69
41531;BME280;58990;46.284;13.126;2022-07-29T05:02:49;99170.59;;;21.80;65.59
41531;BME280;58990;46.284;13.126;2022-07-29T05:05:15;99166.63;;;21.88;65.87
41531;BME280;58990;46.284;13.126;2022-07-29T05:07:41;99168.97;;;21.79;66.08
41531;BME280;58990;46.284;13.126;2022-07-29T05:10:07;99167.38;;;21.78;65.50
41531;BME280;58990;46.284;13.126;2022-07-29T05:12:33;99171.72;;;21.90;65.32
41531;BME280;58990;46.284;13.126;2022-07-29T05:14:58;99164.22;;;21.87;65.88
41531;BME280;58990;46.284;13.126;2022-07-29T05:17:24;99171.69;;;21.84;65.82
41531;BME280;58990;46.284;13.126;2022-07-29T05:19:50;99172.72;;;21.83;65.15
41531;BME280;58990;46.284;13.126;2022-07-29T05:22:20;99174.81;;;21.76;65.29
41531;BME280;58990;46.284;13.126;2022-07-29T05:24:46;99178.59;;;21.80;64.72
41531;BME280;58990;46.284;13.126;2022-07-29T05:27:11;99187.19;;;21.88;64.41
41531;BME280;58990;46.284;13.126;2022-07-29T05:29:37;99185.25;;;22.21;63.59
41531;BME280;58990;46.284;13.126;2022-07-29T05:32:03;99182.28;;;24.45;56.92
41531;BME280;58990;46.284;13.126;2022-07-29T05:34:29;99188.84;;;26.46;50.66
41531;BME280;58990;46.284;13.126;2022-07-29T05:36:54;99191.41;;;27.71;47.16
41531;BME280;58990;46.284;13.126;2022-07-29T05:39:20;99198.47;;;29.06;43.53
41531;BME280;58990;46.284;13.126;2022-07-29T05:41:45;99199.84;;;29.63;41.72
41531;BME280;58990;46.284;13.126;2022-07-29T05:44:11;99201.75;;;30.25;39.97
41531;BME280;58990;46.284;13.126;2022-07-29T05:46:38;99202.44;;;30.40;39.46
41531;BME280;58990;46.284;13.126;2022-07-29T05:49:04;99215.31;;;31.27;37.81
41531;BME280;58990;46.284;13.126;2022-07-29T05:51:32;99201.09;;;29.34;41.01
41531;BME280;58990;46.284;13.126;2022-07-29T05:53:57;99207.69;;;27.09;46.75
41531;BME280;58990;46.284;13.126;2022-07-29T05:56:23;99204.00;;;26.37;49.16
41531;BME280;58990;46.284;13.126;2022-07-29T05:58:49;99221.78;;;26.09;49.63
41531;BME280;58990;46.284;13.126;2022-07-29T06:01:14;99219.56;;;25.86;50.86
41531;BME280;58990;46.284;13.126;2022-07-29T06:03:40;99216.53;;;25.64;51.58
41531;BME280;58990;46.284;13.126;2022-07-29T06:06:06;99216.59;;;25.53;51.72
41531;BME280;58990;46.284;13.126;2022-07-29T06:08:33;99224.81;;;25.28;52.01
41531;BME280;58990;46.284;13.126;2022-07-29T06:10:59;99218.72;;;25.62;51.40
41531;BME280;58990;46.284;13.126;2022-07-29T06:13:25;99228.13;;;25.89;50.55
41531;BME280;58990;46.284;13.126;2022-07-29T06:15:50;99238.28;;;25.67;50.92
41531;BME280;58990;46.284;13.126;2022-07-29T06:18:16;99231.63;;;25.20;52.29
41531;BME280;58990;46.284;13.126;2022-07-29T06:20:42;99233.06;;;24.97;52.59
41531;BME280;58990;46.284;13.126;2022-07-29T06:23:07;99228.34;;;24.78;52.92
41531;BME280;58990;46.284;13.126;2022-07-29T06:25:33;99222.72;;;25.19;52.01
41531;BME280;58990;46.284;13.126;2022-07-29T06:28:00;99225.59;;;25.73;50.25
41531;BME280;58990;46.284;13.126;2022-07-29T06:30:26;99235.53;;;26.07;49.88
41531;BME280;58990;46.284;13.126;2022-07-29T06:32:52;99236.78;;;26.44;48.88
41531;BME280;58990;46.284;13.126;2022-07-29T06:35:18;99232.84;;;26.56;48.74
41531;BME280;58990;46.284;13.126;2022-07-29T06:37:43;99234.84;;;26.21;49.88
41531;BME280;58990;46.284;13.126;2022-07-29T06:40:09;99252.97;;;25.46;51.72
41531;BME280;58990;46.284;13.126;2022-07-29T06:42:55;99237.06;;;25.05;52.88
41531;BME280;58990;46.284;13.126;2022-07-29T06:45:20;99241.22;;;24.71;53.74
41531;BME280;58990;46.284;13.126;2022-07-29T06:47:46;99234.84;;;24.51;54.57
41531;BME280;58990;46.284;13.126;2022-07-29T06:50:11;99230.31;;;24.42;54.37
41531;BME280;58990;46.284;13.126;2022-07-29T06:52:38;99223.91;;;24.38;54.94
41531;BME280;58990;46.284;13.126;2022-07-29T06:55:04;99225.19;;;24.50;54.71
41531;BME280;58990;46.284;13.126;2022-07-29T06:57:30;99233.47;;;24.64;54.10
41531;BME280;58990;46.284;13.126;2022-07-29T06:59:58;99234.38;;;25.05;53.62
41531;BME280;58990;46.284;13.126;2022-07-29T07:02:24;99229.63;;;25.76;51.10
41531;BME280;58990;46.284;13.126;2022-07-29T07:04:49;99232.53;;;26.38;49.42
41531;BME280;58990;46.284;13.126;2022-07-29T07:07:15;99241.53;;;26.96;48.29
41531;BME280;58990;46.284;13.126;2022-07-29T07:09:40;99250.66;;;27.38;47.45
41531;BME280;58990;46.284;13.126;2022-07-29T07:12:06;99235.59;;;27.56;46.82
41531;BME280;58990;46.284;13.126;2022-07-29T07:14:32;99245.81;;;27.73;46.43
41531;BME280;58990;46.284;13.126;2022-07-29T07:16:57;99239.53;;;27.78;45.86
41531;BME280;58990;46.284;13.126;2022-07-29T07:19:25;99241.75;;;28.09;45.65
41531;BME280;58990;46.284;13.126;2022-07-29T07:21:52;99233.75;;;28.31;44.90
41531;BME280;58990;46.284;13.126;2022-07-29T07:24:18;99235.75;;;28.26;44.65
41531;BME280;58990;46.284;13.126;2022-07-29T07:26:43;99226.78;;;28.30;44.63
41531;BME280;58990;46.284;13.126;2022-07-29T07:29:10;99235.66;;;28.31;44.56
41531;BME280;58990;46.284;13.126;2022-07-29T07:31:36;99229.16;;;28.32;44.51
41531;BME280;58990;46.284;13.126;2022-07-29T07:34:02;99231.16;;;28.40;44.35
41531;BME280;58990;46.284;13.126;2022-07-29T07:36:27;99227.56;;;28.59;43.38
41531;BME280;58990;46.284;13.126;2022-07-29T07:38:53;99229.53;;;28.81;43.10
41531;BME280;58990;46.284;13.126;2022-07-29T07:41:18;99227.06;;;29.07;43.14
41531;BME280;58990;46.284;13.126;2022-07-29T07:43:44;99231.63;;;29.20;42.35
41531;BME280;58990;46.284;13.126;2022-07-29T07:46:09;99218.84;;;29.12;42.33
41531;BME280;58990;46.284;13.126;2022-07-29T07:48:35;99227.44;;;28.92;41.99
41531;BME280;58990;46.284;13.126;2022-07-29T07:51:01;99218.84;;;29.12;42.07
41531;BME280;58990;46.284;13.126;2022-07-29T07:53:26;99218.59;;;29.00;42.40
41531;BME280;58990;46.284;13.126;2022-07-29T07:55:52;99214.59;;;29.34;40.88
41531;BME280;58990;46.284;13.126;2022-07-29T07:58:17;99213.44;;;29.49;41.09
41531;BME280;58990;46.284;13.126;2022-07-29T08:00:43;99213.72;;;29.93;39.64
41531;BME280;58990;46.284;13.126;2022-07-29T08:03:09;99215.47;;;30.29;38.70
41531;BME280;58990;46.284;13.126;2022-07-29T08:05:37;99214.47;;;30.25;39.03
41531;BME280;58990;46.284;13.126;2022-07-29T08:08:03;99211.63;;;30.30;38.96
41531;BME280;58990;46.284;13.126;2022-07-29T08:10:29;99216.38;;;30.15;38.77
41531;BME280;58990;46.284;13.126;2022-07-29T08:13:14;99216.56;;;30.68;38.29
41531;BME280;58990;46.284;13.126;2022-07-29T08:15:40;99219.91;;;30.74;38.23
41531;BME280;58990;46.284;13.126;2022-07-29T08:18:06;99208.13;;;30.69;38.45
41531;BME280;58990;46.284;13.126;2022-07-29T08:20:32;99221.72;;;31.13;37.20
41531;BME280;58990;46.284;13.126;2022-07-29T08:23:01;99222.03;;;31.20;36.97
41531;BME280;58990;46.284;13.126;2022-07-29T08:25:26;99213.25;;;31.32;36.83
41531;BME280;58990;46.284;13.126;2022-07-29T08:27:52;99213.53;;;31.48;36.68
41531;BME280;58990;46.284;13.126;2022-07-29T08:30:18;99213.53;;;31.66;36.07
41531;BME280;58990;46.284;13.126;2022-07-29T08:32:43;99218.31;;;31.69;35.37
41531;BME280;58990;46.284;13.126;2022-07-29T08:35:09;99215.22;;;31.97;35.53
41531;BME280;58990;46.284;13.126;2022-07-29T08:37:34;99210.31;;;32.29;34.72
41531;BME280;58990;46.284;13.126;2022-07-29T08:40:00;99216.03;;;32.36;33.91
41531;BME280;58990;46.284;13.126;2022-07-29T08:42:25;99209.03;;;32.56;34.10
41531;BME280;58990;46.284;13.126;2022-07-29T08:44:51;99200.56;;;32.28;34.24
41531;BME280;58990;46.284;13.126;2022-07-29T08:47:16;99205.38;;;32.52;33.72
41531;BME280;58990;46.284;13.126;2022-07-29T08:49:42;99208.00;;;32.69;33.58
41531;BME280;58990;46.284;13.126;2022-07-29T08:52:10;99207.75;;;33.04;32.64
41531;BME280;58990;46.284;13.126;2022-07-29T08:54:37;99201.22;;;33.39;31.49
41531;BME280;58990;46.284;13.126;2022-07-29T08:57:04;99202.22;;;32.80;32.41
41531;BME280;58990;46.284;13.126;2022-07-29T08:59:31;99204.56;;;33.24;31.91
41531;BME280;58990;46.284;13.126;2022-07-29T09:01:59;99201.72;;;33.53;31.53
41531;BME280;58990;46.284;13.126;2022-07-29T09:04:29;99196.09;;;33.71;30.59
41531;BME280;58990;46.284;13.126;2022-07-29T09:07:00;99191.09;;;33.61;31.00
41531;BME280;58990;46.284;13.126;2022-07-29T09:09:28;99187.97;;;33.83;31.07
41531;BME280;58990;46.284;13.126;2022-07-29T09:11:53;99184.13;;;33.84;30.61
41531;BME280;58990;46.284;13.126;2022-07-29T09:14:19;99189.94;;;34.08;30.26
41531;BME280;58990;46.284;13.126;2022-07-29T09:16:47;99180.13;;;33.69;30.53
41531;BME280;58990;46.284;13.126;2022-07-29T09:19:24;99180.28;;;33.85;29.99
41531;BME280;58990;46.284;13.126;2022-07-29T09:21:51;99183.69;;;33.95;30.35
41531;BME280;58990;46.284;13.126;2022-07-29T09:24:23;99168.19;;;34.32;29.66
41531;BME280;58990;46.284;13.126;2022-07-29T09:26:49;99171.09;;;34.93;28.93
41531;BME280;58990;46.284;13.126;2022-07-29T09:29:16;99162.56;;;34.94;28.12
41531;BME280;58990;46.284;13.126;2022-07-29T09:31:45;99173.03;;;35.20;27.55
41531;BME280;58990;46.284;13.126;2022-07-29T09:34:14;99173.88;;;35.37;27.39
41531;BME280;58990;46.284;13.126;2022-07-29T09:36:41;99170.84;;;35.54;27.69
41531;BME280;58990;46.284;13.126;2022-07-29T09:39:07;99165.28;;;35.67;27.04
41531;BME280;58990;46.284;13.126;2022-07-29T09:41:51;99169.19;;;35.98;26.69
41531;BME280;58990;46.284;13.126;2022-07-29T09:44:24;99177.22;;;36.07;26.50
41531;BME280;58990;46.284;13.126;2022-07-29T09:52:30;99165.03;;;36.56;26.11
41531;BME280;58990;46.284;13.126;2022-07-29T09:55:06;99155.84;;;36.64;25.24
41531;BME280;58990;46.284;13.126;2022-07-29T09:57:32;99164.03;;;36.64;25.17
41531;BME280;58990;46.284;13.126;2022-07-29T10:00:07;99161.31;;;37.03;24.64
41531;BME280;58990;46.284;13.126;2022-07-29T10:02:36;99158.06;;;37.36;24.06
41531;BME280;58990;46.284;13.126;2022-07-29T10:05:04;99150.38;;;37.03;23.69
41531;BME280;58990;46.284;13.126;2022-07-29T10:07:51;99141.34;;;37.22;23.59
41531;BME280;58990;46.284;13.126;2022-07-29T10:10:35;99142.09;;;37.65;23.09
41531;BME280;58990;46.284;13.126;2022-07-29T10:13:04;99134.66;;;37.19;22.40
41531;BME280;58990;46.284;13.126;2022-07-29T10:15:31;99129.84;;;37.56;23.08
41531;BME280;58990;46.284;13.126;2022-07-29T10:17:58;99131.31;;;36.87;23.50
41531;BME280;58990;46.284;13.126;2022-07-29T10:20:25;99128.44;;;36.99;23.72
41531;BME280;58990;46.284;13.126;2022-07-29T10:22:51;99122.31;;;37.06;23.08
41531;BME280;58990;46.284;13.126;2022-07-29T10:25:17;99122.56;;;37.20;22.59
41531;BME280;58990;46.284;13.126;2022-07-29T10:27:45;99122.09;;;37.84;22.55
41531;BME280;58990;46.284;13.126;2022-07-29T10:30:12;99113.56;;;37.90;22.36
41531;BME280;58990;46.284;13.126;2022-07-29T10:43:43;99100.53;;;37.79;21.28
41531;BME280;58990;46.284;13.126;2022-07-29T10:46:11;99098.03;;;38.24;20.60
41531;BME280;58990;46.284;13.126;2022-07-29T10:49:14;99094.50;;;37.97;21.24
41531;BME280;58990;46.284;13.126;2022-07-29T10:51:59;99103.53;;;37.74;20.72
41531;BME280;58990;46.284;13.126;2022-07-29T10:54:46;99098.72;;;38.21;20.33
41531;BME280;58990;46.284;13.126;2022-07-29T11:02:51;99098.25;;;39.14;19.47
41531;BME280;58990;46.284;13.126;2022-07-29T11:05:20;99100.69;;;39.64;18.96
41531;BME280;58990;46.284;13.126;2022-07-29T11:11:33;99081.56;;;38.54;18.86
41531;BME280;58990;46.284;13.126;2022-07-29T11:13:54;99082.56;;;37.12;20.21
41531;BME280;58990;46.284;13.126;2022-07-29T11:16:21;99070.91;;;37.89;19.95
41531;BME280;58990;46.284;13.126;2022-07-29T11:21:47;99069.66;;;37.82;20.23
41531;BME280;58990;46.284;13.126;2022-07-29T11:24:31;99071.13;;;37.53;20.43
41531;BME280;58990;46.284;13.126;2022-07-29T11:27:12;99062.00;;;36.20;21.62
41531;BME280;58990;46.284;13.126;2022-07-29T11:32:38;99068.38;;;35.57;22.79
41531;BME280;58990;46.284;13.126;2022-07-29T11:38:27;99059.31;;;36.60;21.89
41531;BME280;58990;46.284;13.126;2022-07-29T11:44:00;99045.34;;;36.45;21.55
41531;BME280;58990;46.284;13.126;2022-07-29T11:46:50;99052.59;;;35.82;23.03
41531;BME280;58990;46.284;13.126;2022-07-29T11:49:20;99064.41;;;35.86;22.48
41531;BME280;58990;46.284;13.126;2022-07-29T11:51:54;99048.53;;;35.92;22.26
41531;BME280;58990;46.284;13.126;2022-07-29T11:54:32;99048.22;;;36.92;21.29
41531;BME280;58990;46.284;13.126;2022-07-29T11:56:58;99046.75;;;37.71;20.31
41531;BME280;58990;46.284;13.126;2022-07-29T11:59:25;99043.72;;;37.76;20.09
41531;BME280;58990;46.284;13.126;2022-07-29T12:01:59;99041.34;;;38.32;19.64
41531;BME280;58990;46.284;13.126;2022-07-29T12:04:25;99036.97;;;38.58;19.27
41531;BME280;58990;46.284;13.126;2022-07-29T12:06:53;99028.44;;;38.02;20.04
41531;BME280;58990;46.284;13.126;2022-07-29T12:09:19;99032.97;;;37.37;20.81
41531;BME280;58990;46.284;13.126;2022-07-29T12:11:46;99035.94;;;37.28;20.98
41531;BME280;58990;46.284;13.126;2022-07-29T12:14:29;99030.97;;;37.34;20.99
41531;BME280;58990;46.284;13.126;2022-07-29T12:16:56;99035.09;;;37.74;21.06
41531;BME280;58990;46.284;13.126;2022-07-29T12:19:21;99040.69;;;37.08;20.98
41531;BME280;58990;46.284;13.126;2022-07-29T12:21:49;99024.50;;;36.17;22.48
41531;BME280;58990;46.284;13.126;2022-07-29T12:24:16;99025.41;;;36.64;22.07
41531;BME280;58990;46.284;13.126;2022-07-29T12:26:56;99018.63;;;36.35;21.96
41531;BME280;58990;46.284;13.126;2022-07-29T12:29:22;99013.56;;;36.57;22.21
41531;BME280;58990;46.284;13.126;2022-07-29T12:31:52;99009.66;;;36.58;21.64
41531;BME280;58990;46.284;13.126;2022-07-29T12:34:20;99008.78;;;36.50;21.88
41531;BME280;58990;46.284;13.126;2022-07-29T12:36:48;99002.44;;;37.12;21.12
41531;BME280;58990;46.284;13.126;2022-07-29T12:39:15;99002.44;;;36.89;21.56
41531;BME280;58990;46.284;13.126;2022-07-29T12:41:41;98999.16;;;36.36;22.29
41531;BME280;58990;46.284;13.126;2022-07-29T12:44:07;99000.34;;;36.19;22.04
41531;BME280;58990;46.284;13.126;2022-07-29T12:46:33;99004.59;;;36.36;21.08
41531;BME280;58990;46.284;13.126;2022-07-29T12:48:58;99001.16;;;35.84;22.45
41531;BME280;58990;46.284;13.126;2022-07-29T12:54:13;98996.38;;;36.56;21.36
41531;BME280;58990;46.284;13.126;2022-07-29T12:56:42;98990.13;;;36.98;21.16
41531;BME280;58990;46.284;13.126;2022-07-29T13:01:52;98997.41;;;36.28;21.73
41531;BME280;58990;46.284;13.126;2022-07-29T13:04:30;98991.56;;;36.49;21.76
41531;BME280;58990;46.284;13.126;2022-07-29T13:07:03;98994.00;;;36.15;22.09
41531;BME280;58990;46.284;13.126;2022-07-29T13:09:40;98984.03;;;36.23;22.03
41531;BME280;58990;46.284;13.126;2022-07-29T13:12:07;98990.44;;;36.31;21.76
41531;BME280;58990;46.284;13.126;2022-07-29T13:17:20;98985.22;;;37.34;20.52
41531;BME280;58990;46.284;13.126;2022-07-29T13:20:04;98990.63;;;37.54;20.42
41531;BME280;58990;46.284;13.126;2022-07-29T13:22:30;98983.09;;;36.15;21.99
41531;BME280;58990;46.284;13.126;2022-07-29T13:25:00;98984.22;;;36.14;22.34
41531;BME280;58990;46.284;13.126;2022-07-29T13:27:29;98978.69;;;35.56;22.87
41531;BME280;58990;46.284;13.126;2022-07-29T13:29:56;98978.53;;;36.03;22.63
41531;BME280;58990;46.284;13.126;2022-07-29T13:32:23;98964.41;;;36.37;21.42
41531;BME280;58990;46.284;13.126;2022-07-29T13:34:50;98969.56;;;36.03;22.67
41531;BME280;58990;46.284;13.126;2022-07-29T13:37:17;98959.50;;;36.07;22.74
41531;BME280;58990;46.284;13.126;2022-07-29T13:39:43;98967.56;;;36.19;22.59
41531;BME280;58990;46.284;13.126;2022-07-29T13:42:09;98975.38;;;36.21;22.81
41531;BME280;58990;46.284;13.126;2022-07-29T13:44:35;98970.03;;;35.53;23.11
41531;BME280;58990;46.284;13.126;2022-07-29T13:47:01;98960.88;;;35.97;22.28
41531;BME280;58990;46.284;13.126;2022-07-29T13:49:27;98961.53;;;36.30;22.17
41531;BME280;58990;46.284;13.126;2022-07-29T13:51:53;98958.53;;;36.35;21.74
41531;BME280;58990;46.284;13.126;2022-07-29T13:54:19;98957.41;;;36.59;21.68
41531;BME280;58990;46.284;13.126;2022-07-29T13:56:45;98954.03;;;36.46;21.97
41531;BME280;58990;46.284;13.126;2022-07-29T13:59:11;98948.00;;;36.57;21.87
41531;BME280;58990;46.284;13.126;2022-07-29T14:01:37;98942.53;;;36.57;21.82
41531;BME280;58990;46.284;13.126;2022-07-29T14:04:03;98933.69;;;36.86;21.65
41531;BME280;58990;46.284;13.126;2022-07-29T14:06:28;98939.53;;;36.42;22.14
41531;BME280;58990;46.284;13.126;2022-07-29T14:08:54;98931.66;;;36.83;21.86